Time;durP1;ratioP1;P1;durP2;ratioP2;P2;SDS_P1;SDS_P2;PMS_P1;PMS_P2;Temp;Humidity;BMP_temperature;BMP_pressure;BME280_temperature;BME280_humidity;BME280_pressure;Samples;Min_cycle;Max_cycle;Signal;HPM_P1;HPM_P2
2022/07/25 00:01:46;;;;;;;0.10;0.10;;;;;;;;;;5069108;28;20958;-82
2022/07/25 00:04:13;;;;;;;0.10;0.10;;;;;;;;;;5080430;28;20427;-82
2022/07/25 00:06:39;;;;;;;0.10;0.10;;;;;;;;;;5068834;28;20430;-82
2022/07/25 00:09:05;;;;;;;0.10;0.10;;;;;;;;;;5070760;28;20829;-83
2022/07/25 00:11:31;;;;;;;0.10;0.10;;;;;;;;;;5063337;28;20463;-82
2022/07/25 00:13:57;;;;;;;0.00;0.00;;;;;;;;;;5060845;28;20502;-83
2022/07/25 00:16:23;;;;;;;0.10;0.10;;;;;;;;;;5079592;28;20497;-81
2022/07/25 00:18:50;;;;;;;0.10;0.10;;;;;;;;;;5051544;28;20435;-83
2022/07/25 00:21:16;;;;;;;0.10;0.10;;;;;;;;;;5067663;28;20451;-83
2022/07/25 00:23:42;;;;;;;0.00;0.00;;;;;;;;;;5067750;28;20932;-82
2022/07/25 00:26:08;;;;;;;0.10;0.10;;;;;;;;;;5067526;28;21059;-82
2022/07/25 00:28:34;;;;;;;0.10;0.10;;;;;;;;;;5068800;28;20481;-84
2022/07/25 00:31:00;;;;;;;0.30;0.30;;;;;;;;;;5053892;28;20423;-83
2022/07/25 00:33:26;;;;;;;0.10;0.10;;;;;;;;;;5073334;28;20522;-83
2022/07/25 00:35:52;;;;;;;0.10;0.10;;;;;;;;;;5070028;28;20419;-83
2022/07/25 00:38:18;;;;;;;0.10;0.10;;;;;;;;;;5066876;28;20454;-83
2022/07/25 00:40:44;;;;;;;0.20;0.20;;;;;;;;;;5067639;28;20434;-81
2022/07/25 00:43:10;;;;;;;0.20;0.20;;;;;;;;;;5073357;28;20415;-81
2022/07/25 00:45:36;;;;;;;0.10;0.10;;;;;;;;;;5068504;28;20922;-80
2022/07/25 00:48:03;;;;;;;0.10;0.10;;;;;;;;;;5070908;28;20429;-82
2022/07/25 00:50:29;;;;;;;0.10;0.10;;;;;;;;;;5071330;28;21042;-82
2022/07/25 00:52:55;;;;;;;0.10;0.10;;;;;;;;;;5071199;28;20423;-83
2022/07/25 00:55:21;;;;;;;0.20;0.10;;;;;;;;;;5066761;28;20427;-83
2022/07/25 00:57:47;;;;;;;0.10;0.10;;;;;;;;;;5072678;28;20819;-82
2022/07/25 01:00:13;;;;;;;0.10;0.10;;;;;;;;;;5067293;28;20438;-82
2022/07/25 01:02:40;;;;;;;0.10;0.10;;;;;;;;;;5071145;28;20789;-82
2022/07/25 01:05:07;;;;;;;0.10;0.10;;;;;;;;;;5066628;28;20553;-82
2022/07/25 01:07:34;;;;;;;0.10;0.10;;;;;;;;;;5082604;28;20431;-82
2022/07/25 01:10:00;;;;;;;0.10;0.10;;;;;;;;;;5072107;28;20507;-82
2022/07/25 01:12:26;;;;;;;0.10;0.10;;;;;;;;;;5067060;28;20438;-80
2022/07/25 01:14:53;;;;;;;0.10;0.10;;;;;;;;;;5056636;28;20438;-81
2022/07/25 01:17:19;;;;;;;0.10;0.10;;;;;;;;;;5071530;28;20445;-79
2022/07/25 01:19:46;;;;;;;0.10;0.10;;;;;;;;;;5071769;28;20415;-82
2022/07/25 01:22:12;;;;;;;0.00;0.00;;;;;;;;;;5070864;28;20451;-80
2022/07/25 01:24:38;;;;;;;0.10;0.10;;;;;;;;;;5054307;28;20416;-81
2022/07/25 01:27:04;;;;;;;2.80;0.50;;;;;;;;;;5069900;28;20466;-82
2022/07/25 01:29:30;;;;;;;0.10;0.10;;;;;;;;;;5073032;28;20438;-82
2022/07/25 01:31:56;;;;;;;0.20;0.20;;;;;;;;;;5082235;28;20481;-81
2022/07/25 01:34:22;;;;;;;0.10;0.10;;;;;;;;;;5068115;28;20909;-81
2022/07/25 01:36:48;;;;;;;0.00;0.00;;;;;;;;;;5068841;28;20921;-81
2022/07/25 01:39:15;;;;;;;0.50;0.30;;;;;;;;;;5071775;28;20751;-81
2022/07/25 01:41:41;;;;;;;0.08;0.08;;;;;;;;;;5072412;28;20931;-82
2022/07/25 01:44:07;;;;;;;0.00;0.00;;;;;;;;;;5071627;28;20778;-82
2022/07/25 01:46:33;;;;;;;0.10;0.10;;;;;;;;;;5065537;28;20440;-82
2022/07/25 01:48:59;;;;;;;0.10;0.10;;;;;;;;;;5068447;28;20435;-82
2022/07/25 01:51:25;;;;;;;0.15;0.15;;;;;;;;;;5084893;28;20481;-82
2022/07/25 01:53:51;;;;;;;0.10;0.10;;;;;;;;;;5070784;28;20476;-83
2022/07/25 01:56:17;;;;;;;0.10;0.10;;;;;;;;;;5068651;28;20913;-82
2022/07/25 01:58:43;;;;;;;0.10;0.10;;;;;;;;;;5070701;28;20518;-82
2022/07/25 02:01:09;;;;;;;0.40;0.20;;;;;;;;;;5069216;28;20429;-83
2022/07/25 02:03:35;;;;;;;0.20;0.20;;;;;;;;;;5056587;28;20433;-76
2022/07/25 02:06:03;;;;;;;0.10;0.10;;;;;;;;;;5056377;28;20778;-77
2022/07/25 02:08:29;;;;;;;0.10;0.10;;;;;;;;;;5060712;28;20431;-83
2022/07/25 02:10:55;;;;;;;0.10;0.10;;;;;;;;;;5070739;28;20419;-82
2022/07/25 02:13:22;;;;;;;0.13;0.13;;;;;;;;;;5070617;28;20471;-82
2022/07/25 02:15:48;;;;;;;0.10;0.10;;;;;;;;;;5064291;28;20428;-80
2022/07/25 02:18:14;;;;;;;0.10;0.10;;;;;;;;;;5071201;28;20486;-82
2022/07/25 02:20:40;;;;;;;0.10;0.10;;;;;;;;;;5066017;28;20421;-82
2022/07/25 02:23:06;;;;;;;0.07;0.07;;;;;;;;;;5062396;28;20498;-83
2022/07/25 02:25:32;;;;;;;0.10;0.10;;;;;;;;;;5059760;28;20452;-83
2022/07/25 02:27:59;;;;;;;0.10;0.10;;;;;;;;;;5078374;28;20700;-83
2022/07/25 02:30:25;;;;;;;0.20;0.20;;;;;;;;;;5070741;28;20493;-83
2022/07/25 02:32:52;;;;;;;0.10;0.10;;;;;;;;;;5069409;28;20419;-83
2022/07/25 02:35:18;;;;;;;0.10;0.10;;;;;;;;;;5066589;28;20456;-82
2022/07/25 02:37:44;;;;;;;0.10;0.10;;;;;;;;;;5075531;28;20455;-82
2022/07/25 02:40:10;;;;;;;0.10;0.10;;;;;;;;;;5055940;28;20506;-82
2022/07/25 02:42:37;;;;;;;0.10;0.10;;;;;;;;;;5051958;28;20433;-82
2022/07/25 02:45:03;;;;;;;0.00;0.00;;;;;;;;;;5070281;28;20415;-83
2022/07/25 02:47:29;;;;;;;0.10;0.10;;;;;;;;;;5057285;28;20434;-83
2022/07/25 02:49:55;;;;;;;0.00;0.00;;;;;;;;;;5069381;28;20420;-84
2022/07/25 02:52:21;;;;;;;0.10;0.10;;;;;;;;;;5069027;28;20485;-84
2022/07/25 02:54:47;;;;;;;0.10;0.10;;;;;;;;;;5069088;28;20486;-83
2022/07/25 02:57:13;;;;;;;0.10;0.10;;;;;;;;;;5051382;28;20917;-84
2022/07/25 02:59:39;;;;;;;0.00;0.00;;;;;;;;;;5068764;28;20824;-83
2022/07/25 03:02:05;;;;;;;0.00;0.00;;;;;;;;;;5060974;28;20769;-83
2022/07/25 03:04:32;;;;;;;0.00;0.00;;;;;;;;;;5070371;28;20494;-83
2022/07/25 03:06:58;;;;;;;0.10;0.10;;;;;;;;;;5059776;28;20506;-83
2022/07/25 03:09:24;;;;;;;0.10;0.10;;;;;;;;;;5066281;28;20420;-83
2022/07/25 03:11:50;;;;;;;0.10;0.10;;;;;;;;;;5069557;28;20509;-84
2022/07/25 03:14:17;;;;;;;0.10;0.10;;;;;;;;;;5063144;28;20779;-82
2022/07/25 03:16:43;;;;;;;0.00;0.00;;;;;;;;;;5059209;28;20431;-80
2022/07/25 03:19:11;;;;;;;0.10;0.10;;;;;;;;;;5067812;28;20465;-81
2022/07/25 03:21:38;;;;;;;0.10;0.10;;;;;;;;;;5069440;28;20900;-81
2022/07/25 03:24:04;;;;;;;0.13;0.13;;;;;;;;;;5075203;28;20432;-81
2022/07/25 03:26:30;;;;;;;0.10;0.10;;;;;;;;;;5068623;28;20427;-83
2022/07/25 03:28:56;;;;;;;0.10;0.10;;;;;;;;;;5068368;28;20427;-82
2022/07/25 03:31:22;;;;;;;0.10;0.10;;;;;;;;;;5068341;28;20477;-83
2022/07/25 03:33:48;;;;;;;0.10;0.10;;;;;;;;;;5068092;28;20906;-83
2022/07/25 03:36:14;;;;;;;0.00;0.00;;;;;;;;;;5067263;28;20419;-81
2022/07/25 03:38:40;;;;;;;0.00;0.00;;;;;;;;;;5065065;28;20739;-82
2022/07/25 03:41:06;;;;;;;0.10;0.10;;;;;;;;;;5059253;28;20896;-82
2022/07/25 03:43:32;;;;;;;0.10;0.10;;;;;;;;;;5068878;28;20937;-82
2022/07/25 03:45:58;;;;;;;0.00;0.00;;;;;;;;;;5068035;28;20436;-82
2022/07/25 03:48:24;;;;;;;0.20;0.20;;;;;;;;;;5069218;28;20820;-82
2022/07/25 03:50:50;;;;;;;0.20;0.20;;;;;;;;;;5050632;28;20782;-83
2022/07/25 03:53:16;;;;;;;0.10;0.10;;;;;;;;;;5066732;28;21209;-83
2022/07/25 03:55:42;;;;;;;0.10;0.10;;;;;;;;;;5067211;28;20454;-81
2022/07/25 03:58:08;;;;;;;0.10;0.10;;;;;;;;;;5068998;28;20416;-83
2022/07/25 04:00:34;;;;;;;1.00;0.30;;;;;;;;;;5069620;28;20510;-83
2022/07/25 04:03:00;;;;;;;0.10;0.10;;;;;;;;;;5070997;28;20480;-83
2022/07/25 04:05:28;;;;;;;0.10;0.10;;;;;;;;;;5072233;28;20518;-83
2022/07/25 04:07:55;;;;;;;0.10;0.10;;;;;;;;;;5070916;28;20423;-81
2022/07/25 04:10:21;;;;;;;0.10;0.10;;;;;;;;;;5072956;28;20430;-83
2022/07/25 04:12:47;;;;;;;0.10;0.10;;;;;;;;;;5074432;28;20495;-82
2022/07/25 04:15:13;;;;;;;0.10;0.10;;;;;;;;;;5073043;28;20419;-82
2022/07/25 04:17:39;;;;;;;0.10;0.10;;;;;;;;;;5063025;28;20431;-82
2022/07/25 04:20:05;;;;;;;0.25;0.25;;;;;;;;;;5053705;28;20454;-83
2022/07/25 04:22:32;;;;;;;0.10;0.10;;;;;;;;;;5071108;28;20430;-84
2022/07/25 04:24:58;;;;;;;0.20;0.20;;;;;;;;;;5068528;28;20451;-83
2022/07/25 04:27:24;;;;;;;0.20;0.20;;;;;;;;;;5058581;28;20488;-82
2022/07/25 04:29:50;;;;;;;0.40;0.20;;;;;;;;;;5065270;28;20428;-83
2022/07/25 04:32:18;;;;;;;0.10;0.10;;;;;;;;;;5064884;28;20424;-83
2022/07/25 04:34:44;;;;;;;0.40;0.20;;;;;;;;;;5072415;28;20886;-82
2022/07/25 04:37:10;;;;;;;0.20;0.20;;;;;;;;;;5071763;28;20416;-82
2022/07/25 04:39:36;;;;;;;0.15;0.15;;;;;;;;;;5070842;28;20433;-82
2022/07/25 04:42:02;;;;;;;0.10;0.10;;;;;;;;;;5054992;28;20424;-80
2022/07/25 04:44:28;;;;;;;0.10;0.10;;;;;;;;;;5072092;28;20424;-83
2022/07/25 04:46:54;;;;;;;0.40;0.40;;;;;;;;;;5071648;28;20431;-81
2022/07/25 04:49:20;;;;;;;0.20;0.20;;;;;;;;;;5070450;28;20434;-83
2022/07/25 04:51:46;;;;;;;0.10;0.10;;;;;;;;;;5054970;28;20431;-83
2022/07/25 04:54:13;;;;;;;0.10;0.10;;;;;;;;;;5065092;28;20839;-82
2022/07/25 04:56:39;;;;;;;0.30;0.30;;;;;;;;;;5057977;28;20435;-82
2022/07/25 04:59:05;;;;;;;0.10;0.10;;;;;;;;;;5083901;28;20423;-82
2022/07/25 05:01:31;;;;;;;0.10;0.10;;;;;;;;;;5069765;28;20940;-82
2022/07/25 05:03:57;;;;;;;0.00;0.00;;;;;;;;;;5068730;28;20448;-84
2022/07/25 05:06:23;;;;;;;0.10;0.10;;;;;;;;;;5070230;28;20458;-82
2022/07/25 05:08:49;;;;;;;0.10;0.10;;;;;;;;;;5071203;28;20510;-82
2022/07/25 05:11:15;;;;;;;0.20;0.20;;;;;;;;;;5064669;28;20421;-82
2022/07/25 05:13:41;;;;;;;0.10;0.10;;;;;;;;;;5057331;28;20430;-80
2022/07/25 05:16:08;;;;;;;0.10;0.10;;;;;;;;;;5064982;28;20969;-82
2022/07/25 05:18:34;;;;;;;0.20;0.10;;;;;;;;;;5077520;28;20911;-83
2022/07/25 05:21:00;;;;;;;0.20;0.20;;;;;;;;;;5062061;28;20477;-83
2022/07/25 05:23:26;;;;;;;0.10;0.10;;;;;;;;;;5062374;28;20904;-83
2022/07/25 05:25:52;;;;;;;0.10;0.10;;;;;;;;;;5054314;28;20895;-83
2022/07/25 05:28:18;;;;;;;0.10;0.10;;;;;;;;;;5059240;28;20943;-81
2022/07/25 05:30:45;;;;;;;0.20;0.20;;;;;;;;;;5069780;28;20545;-83
2022/07/25 05:33:11;;;;;;;0.10;0.10;;;;;;;;;;5070580;28;20514;-82
2022/07/25 05:35:37;;;;;;;0.50;0.40;;;;;;;;;;5072917;28;20882;-83
2022/07/25 05:38:03;;;;;;;0.10;0.10;;;;;;;;;;5070970;28;20423;-83
2022/07/25 05:40:29;;;;;;;0.10;0.10;;;;;;;;;;5071653;28;20404;-83
2022/07/25 05:42:55;;;;;;;0.10;0.10;;;;;;;;;;5067917;28;20455;-84
2022/07/25 05:45:21;;;;;;;0.10;0.10;;;;;;;;;;5060082;28;20424;-81
2022/07/25 05:47:47;;;;;;;0.10;0.10;;;;;;;;;;5071335;28;20436;-82
2022/07/25 05:50:13;;;;;;;0.10;0.10;;;;;;;;;;5053931;28;20448;-82
2022/07/25 05:52:39;;;;;;;0.15;0.10;;;;;;;;;;5062075;28;20534;-82
2022/07/25 05:55:06;;;;;;;0.13;0.13;;;;;;;;;;5071979;28;20485;-83
2022/07/25 05:57:32;;;;;;;0.13;0.10;;;;;;;;;;5067765;28;20422;-84
2022/07/25 05:59:58;;;;;;;0.10;0.10;;;;;;;;;;5072387;28;20440;-83
2022/07/25 06:02:24;;;;;;;0.10;0.10;;;;;;;;;;5079594;28;20910;-83
2022/07/25 06:04:50;;;;;;;0.20;0.20;;;;;;;;;;5068680;28;20959;-84
2022/07/25 06:07:16;;;;;;;0.10;0.10;;;;;;;;;;5066763;28;20431;-83
2022/07/25 06:09:42;;;;;;;0.10;0.10;;;;;;;;;;5069917;28;20494;-82
2022/07/25 06:12:08;;;;;;;0.10;0.10;;;;;;;;;;5059090;28;20781;-82
2022/07/25 06:14:34;;;;;;;0.10;0.10;;;;;;;;;;5056658;28;20908;-83
2022/07/25 06:17:00;;;;;;;0.10;0.10;;;;;;;;;;5059551;28;20431;-81
2022/07/25 06:19:26;;;;;;;0.20;0.20;;;;;;;;;;5065591;28;20423;-85
2022/07/25 06:21:52;;;;;;;0.10;0.10;;;;;;;;;;5060844;28;20522;-78
2022/07/25 06:24:18;;;;;;;0.10;0.10;;;;;;;;;;5068028;28;20885;-79
2022/07/25 06:26:44;;;;;;;0.20;0.20;;;;;;;;;;5074359;28;20490;-80
2022/07/25 06:29:11;;;;;;;0.20;0.20;;;;;;;;;;5061119;28;20440;-77
2022/07/25 06:31:37;;;;;;;0.20;0.10;;;;;;;;;;5067561;28;20423;-78
2022/07/25 06:34:03;;;;;;;0.10;0.10;;;;;;;;;;5068252;28;20419;-76
2022/07/25 06:36:29;;;;;;;0.10;0.10;;;;;;;;;;5067030;28;20424;-79
2022/07/25 06:38:55;;;;;;;0.10;0.10;;;;;;;;;;5065058;28;20775;-78
2022/07/25 06:41:21;;;;;;;0.10;0.10;;;;;;;;;;5068604;28;20882;-77
2022/07/25 06:43:47;;;;;;;0.10;0.10;;;;;;;;;;5065319;28;20892;-77
2022/07/25 06:46:13;;;;;;;0.10;0.10;;;;;;;;;;5066755;28;20951;-76
2022/07/25 06:48:39;;;;;;;0.10;0.10;;;;;;;;;;5055889;28;20452;-76
2022/07/25 06:51:06;;;;;;;1.20;0.50;;;;;;;;;;5066877;28;20419;-76
2022/07/25 06:53:32;;;;;;;0.10;0.10;;;;;;;;;;5071034;28;20420;-77
2022/07/25 06:55:58;;;;;;;0.10;0.10;;;;;;;;;;5070100;28;20415;-79
2022/07/25 06:58:24;;;;;;;0.10;0.10;;;;;;;;;;5065802;28;20419;-79
2022/07/25 07:00:50;;;;;;;0.20;0.20;;;;;;;;;;5063005;28;20442;-77
2022/07/25 07:03:16;;;;;;;0.10;0.10;;;;;;;;;;5063535;28;20416;-76
2022/07/25 07:05:42;;;;;;;0.10;0.10;;;;;;;;;;5068034;28;20586;-77
2022/07/25 07:08:08;;;;;;;0.30;0.30;;;;;;;;;;5067532;28;20423;-77
2022/07/25 07:10:34;;;;;;;0.40;0.40;;;;;;;;;;5065743;28;20430;-76
2022/07/25 07:13:04;;;;;;;0.20;0.20;;;;;;;;;;5066579;28;20416;-77
2022/07/25 07:15:30;;;;;;;0.20;0.20;;;;;;;;;;5067063;28;20756;-77
2022/07/25 07:17:56;;;;;;;0.10;0.10;;;;;;;;;;5068116;28;20420;-77
2022/07/25 07:20:22;;;;;;;0.10;0.10;;;;;;;;;;5072073;28;20428;-77
2022/07/25 07:22:49;;;;;;;0.10;0.10;;;;;;;;;;5065395;28;20430;-78
2022/07/25 07:25:15;;;;;;;0.10;0.10;;;;;;;;;;5057029;28;20419;-76
2022/07/25 07:27:42;;;;;;;0.30;0.30;;;;;;;;;;5063957;28;20430;-86
2022/07/25 07:30:08;;;;;;;0.10;0.10;;;;;;;;;;5049783;28;20423;-77
2022/07/25 07:32:34;;;;;;;0.20;0.20;;;;;;;;;;5062745;28;20813;-76
2022/07/25 07:35:00;;;;;;;0.13;0.13;;;;;;;;;;5064005;28;20431;-77
2022/07/25 07:37:26;;;;;;;0.10;0.10;;;;;;;;;;5061681;28;20423;-77
2022/07/25 07:39:52;;;;;;;0.13;0.13;;;;;;;;;;5064989;28;20423;-77
2022/07/25 07:42:19;;;;;;;0.15;0.15;;;;;;;;;;5065230;28;20427;-76
2022/07/25 07:44:45;;;;;;;0.32;0.32;;;;;;;;;;5070767;28;20495;-76
2022/07/25 07:47:11;;;;;;;0.20;0.20;;;;;;;;;;5062947;28;20445;-76
2022/07/25 07:49:39;;;;;;;0.10;0.10;;;;;;;;;;5061518;28;20587;-76
2022/07/25 07:52:05;;;;;;;0.30;0.30;;;;;;;;;;5062902;28;20431;-77
2022/07/25 07:57:16;;;;;;;0.10;0.10;;;;;;;;;;5065955;28;20411;-77
2022/07/25 07:59:42;;;;;;;0.10;0.10;;;;;;;;;;5067804;28;20430;-77
2022/07/25 08:02:08;;;;;;;0.10;0.10;;;;;;;;;;5062678;28;20511;-76
2022/07/25 08:04:34;;;;;;;0.10;0.10;;;;;;;;;;5065919;28;20425;-76
2022/07/25 08:07:00;;;;;;;0.20;0.20;;;;;;;;;;5062660;28;20436;-77
2022/07/25 08:09:26;;;;;;;0.20;0.20;;;;;;;;;;5064240;28;20422;-76
2022/07/25 08:11:52;;;;;;;0.10;0.10;;;;;;;;;;5057960;28;20757;-76
2022/07/25 08:14:19;;;;;;;0.10;0.10;;;;;;;;;;5062992;28;20436;-75
2022/07/25 08:16:45;;;;;;;0.10;0.10;;;;;;;;;;5066230;28;20501;-76
2022/07/25 08:19:11;;;;;;;0.20;0.20;;;;;;;;;;5065800;28;20424;-77
2022/07/25 08:21:37;;;;;;;0.10;0.10;;;;;;;;;;5053225;28;20485;-77
2022/07/25 08:24:03;;;;;;;0.20;0.20;;;;;;;;;;5055221;28;20429;-78
2022/07/25 08:26:32;;;;;;;0.30;0.30;;;;;;;;;;5061592;28;20420;-77
2022/07/25 08:28:58;;;;;;;0.50;0.20;;;;;;;;;;5065215;28;20422;-77
2022/07/25 08:31:26;;;;;;;0.20;0.20;;;;;;;;;;5068958;28;20424;-80
2022/07/25 08:33:52;;;;;;;0.10;0.10;;;;;;;;;;5063707;28;20500;-77
2022/07/25 08:36:18;;;;;;;0.10;0.10;;;;;;;;;;5065653;28;20427;-75
2022/07/25 08:38:44;;;;;;;0.20;0.20;;;;;;;;;;5063983;28;20790;-75
2022/07/25 08:41:10;;;;;;;0.17;0.17;;;;;;;;;;5063702;28;20427;-76
2022/07/25 08:43:38;;;;;;;0.10;0.10;;;;;;;;;;5067264;28;20416;-77
2022/07/25 08:46:05;;;;;;;0.10;0.10;;;;;;;;;;5056328;28;20425;-78
2022/07/25 08:48:31;;;;;;;0.20;0.20;;;;;;;;;;5064293;28;20918;-77
2022/07/25 08:50:57;;;;;;;0.10;0.10;;;;;;;;;;5062749;28;20484;-82
2022/07/25 08:53:24;;;;;;;0.20;0.20;;;;;;;;;;5067811;28;20416;-81
2022/07/25 08:55:50;;;;;;;0.40;0.40;;;;;;;;;;5060870;28;20427;-87
2022/07/25 08:58:17;;;;;;;0.90;0.90;;;;;;;;;;5067591;28;20809;-83
2022/07/25 09:00:44;;;;;;;0.10;0.10;;;;;;;;;;5061310;28;20431;-84
2022/07/25 09:03:10;;;;;;;0.10;0.10;;;;;;;;;;5066526;28;20494;-82
2022/07/25 09:05:37;;;;;;;0.10;0.10;;;;;;;;;;5068303;28;20518;-85
2022/07/25 09:08:09;;;;;;;0.10;0.10;;;;;;;;;;5071729;28;20430;-83
2022/07/25 09:10:35;;;;;;;0.40;0.30;;;;;;;;;;5086632;28;20945;-79
2022/07/25 09:13:06;;;;;;;0.10;0.10;;;;;;;;;;5067694;28;20481;-80
2022/07/25 09:15:34;;;;;;;0.10;0.10;;;;;;;;;;5064843;28;20423;-78
2022/07/25 09:18:01;;;;;;;0.25;0.25;;;;;;;;;;5068943;28;20790;-79
2022/07/25 09:20:37;;;;;;;0.10;0.10;;;;;;;;;;5063622;28;20423;-78
2022/07/25 09:23:03;;;;;;;0.10;0.10;;;;;;;;;;5065639;28;20435;-81
2022/07/25 09:25:29;;;;;;;0.25;0.20;;;;;;;;;;5065480;28;20427;-78
2022/07/25 09:27:55;;;;;;;0.10;0.10;;;;;;;;;;5067323;28;20427;-79
2022/07/25 09:30:22;;;;;;;0.10;0.10;;;;;;;;;;5072213;28;20762;-79
2022/07/25 09:32:59;;;;;;;0.10;0.10;;;;;;;;;;5069572;28;20424;-80
2022/07/25 09:35:33;;;;;;;0.10;0.10;;;;;;;;;;5071817;28;20449;-82
2022/07/25 09:38:08;;;;;;;0.10;0.10;;;;;;;;;;5060845;28;20434;-81
2022/07/25 09:40:34;;;;;;;0.10;0.10;;;;;;;;;;5081874;28;20430;-80
2022/07/25 09:43:00;;;;;;;0.10;0.10;;;;;;;;;;5058671;28;20481;-81
2022/07/25 09:45:26;;;;;;;0.10;0.10;;;;;;;;;;5064975;28;20438;-82
2022/07/25 09:47:55;;;;;;;0.10;0.10;;;;;;;;;;5066261;28;20423;-82
2022/07/25 09:50:22;;;;;;;0.10;0.10;;;;;;;;;;5064592;28;20951;-82
2022/07/25 09:52:49;;;;;;;0.10;0.10;;;;;;;;;;5069099;28;20435;-82
2022/07/25 09:55:15;;;;;;;0.10;0.10;;;;;;;;;;5068338;28;20845;-81
2022/07/25 09:57:43;;;;;;;0.10;0.10;;;;;;;;;;5070516;28;20827;-79
2022/07/25 10:00:10;;;;;;;0.20;0.20;;;;;;;;;;5072257;28;20431;-80
2022/07/25 10:02:45;;;;;;;0.10;0.10;;;;;;;;;;5062795;28;20486;-80
2022/07/25 10:05:25;;;;;;;0.20;0.10;;;;;;;;;;5061137;28;20450;-80
2022/07/25 10:07:53;;;;;;;0.10;0.10;;;;;;;;;;5065690;28;20465;-83
2022/07/25 10:10:30;;;;;;;0.60;0.30;;;;;;;;;;5067130;28;20704;-83
2022/07/25 10:13:03;;;;;;;0.20;0.10;;;;;;;;;;5069117;28;20438;-80
2022/07/25 10:15:42;;;;;;;0.20;0.20;;;;;;;;;;5061574;28;20429;-79
2022/07/25 10:18:08;;;;;;;0.10;0.10;;;;;;;;;;5070803;28;20427;-79
2022/07/25 10:20:34;;;;;;;0.10;0.10;;;;;;;;;;5066840;28;20429;-79
2022/07/25 10:23:01;;;;;;;0.10;0.10;;;;;;;;;;5070835;28;20508;-77
2022/07/25 10:25:27;;;;;;;0.10;0.10;;;;;;;;;;5070561;28;20416;-80
2022/07/25 10:27:59;;;;;;;0.10;0.10;;;;;;;;;;5056574;28;20462;-77
2022/07/25 10:30:34;;;;;;;0.20;0.20;;;;;;;;;;5071126;28;20434;-81
2022/07/25 10:33:17;;;;;;;0.10;0.10;;;;;;;;;;5067355;28;20426;-79
2022/07/25 10:35:44;;;;;;;0.13;0.13;;;;;;;;;;5065671;28;20494;-86
2022/07/25 10:38:10;;;;;;;0.10;0.10;;;;;;;;;;5069806;28;20433;-83
2022/07/25 10:40:42;;;;;;;0.10;0.10;;;;;;;;;;5070233;28;20971;-82
2022/07/25 10:43:11;;;;;;;0.10;0.10;;;;;;;;;;5064505;28;20932;-77
2022/07/25 10:45:57;;;;;;;0.30;0.30;;;;;;;;;;5065116;28;20433;-79
2022/07/25 10:48:25;;;;;;;0.35;0.17;;;;;;;;;;5065038;28;20430;-77
2022/07/25 10:50:51;;;;;;;0.10;0.10;;;;;;;;;;5052781;28;20757;-81
2022/07/25 10:53:27;;;;;;;0.20;0.20;;;;;;;;;;5068626;28;20504;-80
2022/07/25 10:55:56;;;;;;;0.10;0.10;;;;;;;;;;5063598;28;20626;-79
2022/07/25 10:58:22;;;;;;;0.10;0.10;;;;;;;;;;5065941;28;20427;-77
2022/07/25 11:00:49;;;;;;;0.10;0.10;;;;;;;;;;5059799;28;21270;-76
2022/07/25 11:03:16;;;;;;;0.20;0.20;;;;;;;;;;5065722;28;20423;-77
2022/07/25 11:05:50;;;;;;;0.10;0.10;;;;;;;;;;5065159;28;20445;-78
2022/07/25 11:08:16;;;;;;;0.10;0.10;;;;;;;;;;5050930;28;20427;-80
2022/07/25 11:10:50;;;;;;;0.10;0.10;;;;;;;;;;5064090;28;20425;-79
2022/07/25 11:13:16;;;;;;;0.20;0.20;;;;;;;;;;5060327;28;20422;-79
2022/07/25 11:15:43;;;;;;;0.30;0.30;;;;;;;;;;5065484;28;20582;-80
2022/07/25 11:18:10;;;;;;;0.10;0.10;;;;;;;;;;5062084;28;20423;-79
2022/07/25 11:20:36;;;;;;;0.20;0.20;;;;;;;;;;5061179;28;20424;-80
2022/07/25 11:23:02;;;;;;;0.10;0.10;;;;;;;;;;5062959;28;20434;-81
2022/07/25 11:25:28;;;;;;;0.10;0.10;;;;;;;;;;5064280;28;20475;-80
2022/07/25 11:27:58;;;;;;;0.10;0.10;;;;;;;;;;5064210;28;20423;-81
2022/07/25 11:30:24;;;;;;;0.10;0.10;;;;;;;;;;5062955;28;20419;-78
2022/07/25 11:32:57;;;;;;;0.10;0.10;;;;;;;;;;5063005;28;20518;-78
2022/07/25 11:35:32;;;;;;;0.30;0.30;;;;;;;;;;5064695;28;20426;-78
2022/07/25 11:38:01;;;;;;;0.10;0.10;;;;;;;;;;5063904;28;20434;-78
2022/07/25 11:40:27;;;;;;;0.10;0.10;;;;;;;;;;5059588;28;20419;-79
2022/07/25 11:42:54;;;;;;;0.10;0.10;;;;;;;;;;5064766;28;20483;-77
2022/07/25 11:45:32;;;;;;;0.10;0.10;;;;;;;;;;5065306;28;20901;-77
2022/07/25 11:48:06;;;;;;;0.10;0.10;;;;;;;;;;5059129;28;20438;-80
2022/07/25 11:50:33;;;;;;;0.10;0.10;;;;;;;;;;5061248;28;20826;-79
2022/07/25 11:53:00;;;;;;;0.00;0.00;;;;;;;;;;5058788;28;20431;-79
2022/07/25 11:55:29;;;;;;;0.10;0.10;;;;;;;;;;5066116;28;20502;-78
2022/07/25 11:57:57;;;;;;;0.43;0.40;;;;;;;;;;5064730;28;20466;-80
2022/07/25 12:00:24;;;;;;;0.10;0.10;;;;;;;;;;5061133;28;20546;-81
2022/07/25 12:02:50;;;;;;;0.20;0.20;;;;;;;;;;5064073;28;20431;-78
2022/07/25 12:05:17;;;;;;;0.40;0.40;;;;;;;;;;5063652;28;20790;-77
2022/07/25 12:07:44;;;;;;;0.10;0.10;;;;;;;;;;5057960;28;20425;-77
2022/07/25 12:10:15;;;;;;;0.10;0.10;;;;;;;;;;5054539;28;20427;-79
2022/07/25 12:12:51;;;;;;;0.10;0.10;;;;;;;;;;5056084;28;20424;-78
2022/07/25 12:15:24;;;;;;;0.17;0.17;;;;;;;;;;5067990;28;20424;-78
2022/07/25 12:17:51;;;;;;;0.85;0.35;;;;;;;;;;5055390;28;20437;-85
2022/07/25 12:20:21;;;;;;;0.60;0.40;;;;;;;;;;5076150;28;20435;-82
2022/07/25 12:22:50;;;;;;;0.10;0.10;;;;;;;;;;5066311;28;20948;-84
2022/07/25 12:25:17;;;;;;;0.10;0.10;;;;;;;;;;5071791;28;20415;-83
2022/07/25 12:27:43;;;;;;;0.20;0.20;;;;;;;;;;5072470;28;20474;-84
2022/07/25 12:30:10;;;;;;;0.60;0.30;;;;;;;;;;5054799;28;20544;-85
2022/07/25 12:32:36;;;;;;;2.35;0.20;;;;;;;;;;5069931;28;20747;-83
2022/07/25 12:35:06;;;;;;;0.03;0.03;;;;;;;;;;5068018;28;20434;-83
2022/07/25 12:37:32;;;;;;;0.10;0.10;;;;;;;;;;5068881;28;20421;-84
2022/07/25 12:39:58;;;;;;;0.10;0.10;;;;;;;;;;5062236;28;20472;-84
2022/07/25 12:42:25;;;;;;;0.10;0.10;;;;;;;;;;5068460;28;20427;-84
2022/07/25 12:44:51;;;;;;;0.20;0.20;;;;;;;;;;5064657;28;20477;-84
2022/07/25 12:47:17;;;;;;;0.10;0.10;;;;;;;;;;5069800;28;20429;-77
2022/07/25 12:49:43;;;;;;;0.30;0.20;;;;;;;;;;5066128;28;20494;-78
2022/07/25 12:52:09;;;;;;;0.10;0.10;;;;;;;;;;5066903;28;20488;-77
2022/07/25 12:54:35;;;;;;;0.03;0.03;;;;;;;;;;5066096;28;20416;-78
2022/07/25 12:57:01;;;;;;;0.10;0.10;;;;;;;;;;5069350;28;20474;-81
2022/07/25 12:59:27;;;;;;;0.20;0.20;;;;;;;;;;5063972;28;20926;-80
2022/07/25 13:01:54;;;;;;;0.10;0.10;;;;;;;;;;5059830;28;20425;-79
2022/07/25 13:04:20;;;;;;;0.13;0.13;;;;;;;;;;5071552;28;20437;-79
2022/07/25 13:06:46;;;;;;;0.80;0.20;;;;;;;;;;5071929;28;20476;-76
2022/07/25 13:09:12;;;;;;;0.10;0.10;;;;;;;;;;5069694;28;20473;-80
2022/07/25 13:11:38;;;;;;;0.55;0.50;;;;;;;;;;5072559;28;20491;-78
2022/07/25 13:14:04;;;;;;;0.10;0.10;;;;;;;;;;5063417;28;21206;-80
2022/07/25 13:16:32;;;;;;;0.10;0.10;;;;;;;;;;5059884;28;20444;-85
2022/07/25 13:18:58;;;;;;;0.30;0.30;;;;;;;;;;5065846;28;20428;-85
2022/07/25 13:21:24;;;;;;;0.30;0.20;;;;;;;;;;5057531;28;20420;-84
2022/07/25 13:23:50;;;;;;;0.10;0.10;;;;;;;;;;5070266;28;20427;-83
2022/07/25 13:26:16;;;;;;;0.70;0.60;;;;;;;;;;5065927;28;20438;-82
2022/07/25 13:28:43;;;;;;;0.10;0.10;;;;;;;;;;5062934;28;20419;-83
2022/07/25 13:31:09;;;;;;;0.10;0.10;;;;;;;;;;5070661;28;20415;-84
2022/07/25 13:33:35;;;;;;;0.30;0.30;;;;;;;;;;5062673;28;20417;-84
2022/07/25 13:36:01;;;;;;;0.10;0.10;;;;;;;;;;5065270;28;20427;-82
2022/07/25 13:38:27;;;;;;;0.10;0.10;;;;;;;;;;5059669;28;20439;-81
2022/07/25 13:40:53;;;;;;;0.10;0.10;;;;;;;;;;5063135;28;20917;-82
2022/07/25 13:43:19;;;;;;;0.20;0.20;;;;;;;;;;5066519;28;20906;-81
2022/07/25 13:45:45;;;;;;;0.10;0.10;;;;;;;;;;5062566;28;21788;-83
2022/07/25 13:48:11;;;;;;;0.10;0.10;;;;;;;;;;5063444;28;20910;-78
2022/07/25 13:50:37;;;;;;;0.10;0.10;;;;;;;;;;5065900;28;20424;-82
2022/07/25 13:53:04;;;;;;;0.10;0.10;;;;;;;;;;5066531;28;20419;-84
2022/07/25 13:55:31;;;;;;;0.10;0.10;;;;;;;;;;5077629;28;20431;-80
2022/07/25 13:57:58;;;;;;;0.20;0.20;;;;;;;;;;5063823;28;20419;-84
2022/07/25 14:00:24;;;;;;;0.17;0.17;;;;;;;;;;5063995;28;20430;-83
2022/07/25 14:02:50;;;;;;;0.10;0.10;;;;;;;;;;5065278;28;20963;-78
2022/07/25 14:05:17;;;;;;;0.10;0.10;;;;;;;;;;5068916;28;20510;-80
2022/07/25 14:07:43;;;;;;;0.10;0.10;;;;;;;;;;5071096;28;20424;-77
2022/07/25 14:10:09;;;;;;;0.10;0.10;;;;;;;;;;5065376;28;20504;-83
2022/07/25 14:12:36;;;;;;;0.30;0.27;;;;;;;;;;5062978;28;20421;-77
2022/07/25 14:15:02;;;;;;;0.17;0.15;;;;;;;;;;5068646;28;20419;-76
2022/07/25 14:17:29;;;;;;;0.20;0.20;;;;;;;;;;5067642;28;20420;-76
2022/07/25 14:19:55;;;;;;;0.10;0.10;;;;;;;;;;5057210;28;20900;-78
2022/07/25 14:22:21;;;;;;;0.20;0.20;;;;;;;;;;5066628;28;20953;-76
2022/07/25 14:24:47;;;;;;;0.10;0.10;;;;;;;;;;5066736;28;20878;-77
2022/07/25 14:27:13;;;;;;;0.47;0.35;;;;;;;;;;5065042;28;20434;-76
2022/07/25 14:29:39;;;;;;;0.10;0.10;;;;;;;;;;5065022;28;20415;-79
2022/07/25 14:32:06;;;;;;;0.20;0.20;;;;;;;;;;5065196;28;20472;-79
2022/07/25 14:34:33;;;;;;;0.05;0.05;;;;;;;;;;5064400;28;20443;-82
2022/07/25 14:36:59;;;;;;;0.10;0.10;;;;;;;;;;5059919;28;20434;-80
2022/07/25 14:39:25;;;;;;;0.60;0.20;;;;;;;;;;5064105;28;20466;-81
2022/07/25 14:41:51;;;;;;;0.10;0.10;;;;;;;;;;5065261;28;20929;-81
2022/07/25 14:44:17;;;;;;;0.20;0.20;;;;;;;;;;5065996;28;20814;-77